Pagina principale
METAR-TAF:

METAR-TAF

Aeroporti :

Berlin, New Hampshire, Stati Uniti

latitudine: 44-34-34N, longitudine: 071-10-43W, altezza: 353 m

Osservazione

Il bollettino è stato emesso 11 minuti fa, alle 07:52 UTC
Vento calmo
Temperature 2°C
Umidità 100%
Pressione 1016 hPa
Visibilità: 16.1 km
Nubi sparse ad un'altezza di 100 ft

METAR: KBML 240752Z AUTO 00000KT 10SM SCT001 02/02 A3001 RMK AO2 SLP167 T00220017

Ora: 04:03 (08:03 UTC)


TAF: mancante

Osservazioni e previsioni meteorologiche di più di 4000 aeroporti (messaggi METAR e TAF).

Le stazioni disponibili sono rappresentate dai dischi gialli e rossi sulla carta.

Puntare il mouse per vedere il nome della stazione.

Clicca sopra per visualizzare le osservazioni e previsioni meteorologiche.

Per cambiare la mappa : fare clic sui pulsanti verdi con una croce nera per ingrandire, il pulsante verde con un trattino per diminuire, o sulla freccia verde per le mappe adiacenti.


METAR-TAF: